createdAt,value
2022-08-17T00:01:51.285Z,22.42
2022-08-17T00:04:19.545Z,21.90
2022-08-17T00:06:49.350Z,21.73
2022-08-17T00:09:18.746Z,22.63
2022-08-17T00:12:35.510Z,18.50
2022-08-17T00:14:36.455Z,11.65
2022-08-17T00:17:04.766Z,11.02
2022-08-17T00:19:32.886Z,10.10
2022-08-17T00:22:32.215Z,10.45
2022-08-17T00:24:50.218Z,11.60
2022-08-17T00:27:17.609Z,15.73
2022-08-17T00:29:45.951Z,14.38
2022-08-17T00:33:12.120Z,13.57
2022-08-17T00:35:04.990Z,13.05
2022-08-17T00:37:31.755Z,15.20
2022-08-17T00:39:58.716Z,16.15
2022-08-17T00:42:30.796Z,12.00
2022-08-17T00:44:58.552Z,18.80
2022-08-17T00:47:25.681Z,21.40
2022-08-17T00:49:52.814Z,22.40
2022-08-17T00:52:27.627Z,23.92
2022-08-17T00:54:55.695Z,21.15
2022-08-17T00:57:39.269Z,20.88
2022-08-17T01:00:10.969Z,21.83
2022-08-17T01:02:43.279Z,21.55
2022-08-17T01:05:14.887Z,20.30
2022-08-17T01:07:42.918Z,22.27
2022-08-17T01:10:59.175Z,21.60
2022-08-17T01:13:02.566Z,20.83
2022-08-17T01:15:36.525Z,22.52
2022-08-17T01:18:07.854Z,21.80
2022-08-17T01:20:48.230Z,23.38
2022-08-17T01:23:20.605Z,22.98
2022-08-17T01:26:01.814Z,21.95
2022-08-17T01:28:52.750Z,23.67
2022-08-17T01:31:18.391Z,16.15
2022-08-17T01:33:45.569Z,17.55
2022-08-17T01:36:12.308Z,16.05
2022-08-17T01:38:40.394Z,16.27
2022-08-17T01:41:12.349Z,15.60
2022-08-17T01:43:51.042Z,16.67
2022-08-17T01:46:23.298Z,15.82
2022-08-17T01:48:51.504Z,16.90
2022-08-17T01:51:19.987Z,15.43
2022-08-17T01:53:53.999Z,16.63
2022-08-17T01:56:24.516Z,18.02
2022-08-17T01:58:52.591Z,14.88
2022-08-17T02:01:23.027Z,13.70
2022-08-17T02:03:59.181Z,11.73
2022-08-17T02:06:52.558Z,13.93
2022-08-17T02:09:19.355Z,12.68
2022-08-17T02:11:50.301Z,13.07
2022-08-17T02:14:17.979Z,14.38
2022-08-17T02:16:44.796Z,12.75
2022-08-17T02:19:15.712Z,12.05
2022-08-17T02:21:45.984Z,11.50
2022-08-17T02:24:58.707Z,10.65
2022-08-17T02:27:06.486Z,10.05
2022-08-17T02:29:33.408Z,11.57
2022-08-17T02:32:01.879Z,13.88
2022-08-17T02:34:29.130Z,13.00
2022-08-17T02:36:56.194Z,12.73
2022-08-17T02:39:23.032Z,18.17
2022-08-17T02:41:50.043Z,16.55
2022-08-17T02:44:39.114Z,15.65
2022-08-17T02:47:04.168Z,11.00
2022-08-17T02:49:31.440Z,11.63
2022-08-17T02:51:58.667Z,13.15
2022-08-17T02:54:39.993Z,13.68
2022-08-17T02:57:10.161Z,14.68
2022-08-17T02:59:38.652Z,13.95
2022-08-17T03:02:11.490Z,14.68
2022-08-17T03:04:38.560Z,14.65
2022-08-17T03:07:06.684Z,14.77
2022-08-17T03:09:33.657Z,14.48
2022-08-17T03:12:12.922Z,14.93
2022-08-17T03:14:41.863Z,14.80
2022-08-17T03:17:10.125Z,17.50
2022-08-17T03:19:37.519Z,18.88
2022-08-17T03:22:35.381Z,20.77
2022-08-17T03:24:56.809Z,16.50
2022-08-17T03:27:23.598Z,16.20
2022-08-17T03:29:50.424Z,15.98
2022-08-17T03:32:17.582Z,16.55
2022-08-17T03:34:44.402Z,16.40
2022-08-17T03:37:11.175Z,16.55
2022-08-17T03:39:38.662Z,15.82
2022-08-17T03:42:31.508Z,19.63
2022-08-17T03:45:00.101Z,21.77
2022-08-17T03:47:45.899Z,22.40
2022-08-17T03:50:32.172Z,18.98
2022-08-17T03:53:19.152Z,18.42
2022-08-17T03:56:04.558Z,16.60
2022-08-17T03:58:31.409Z,18.75
2022-08-17T04:00:58.173Z,21.23
2022-08-17T04:03:24.998Z,25.50
2022-08-17T04:05:51.806Z,25.45
2022-08-17T04:08:19.042Z,25.63
2022-08-17T04:10:46.086Z,28.95
2022-08-17T04:13:13.837Z,30.77
2022-08-17T04:15:40.850Z,33.50
2022-08-17T04:18:07.756Z,31.83
2022-08-17T04:20:37.898Z,29.95
2022-08-17T04:23:10.808Z,29.73
2022-08-17T04:25:40.422Z,31.30
2022-08-17T04:28:15.928Z,33.40
2022-08-17T04:30:45.415Z,30.70
2022-08-17T04:33:16.454Z,33.40
2022-08-17T04:35:46.890Z,30.70
2022-08-17T04:38:16.853Z,30.10
2022-08-17T04:41:02.669Z,29.73
2022-08-17T04:43:31.208Z,29.30
2022-08-17T04:46:01.744Z,29.60
2022-08-17T04:48:37.858Z,28.37
2022-08-17T04:51:15.318Z,26.23
2022-08-17T04:53:45.266Z,26.58
2022-08-17T04:56:16.773Z,27.98
2022-08-17T04:58:48.316Z,29.42
2022-08-17T05:01:19.031Z,28.92
2022-08-17T05:03:53.285Z,31.50
2022-08-17T05:06:20.691Z,29.48
2022-08-17T05:08:47.491Z,30.20
2022-08-17T05:11:14.647Z,31.10
2022-08-17T05:13:41.900Z,31.55
2022-08-17T05:16:09.185Z,33.10
2022-08-17T05:18:38.775Z,35.60
2022-08-17T05:21:06.872Z,33.30
2022-08-17T05:23:43.000Z,35.50
2022-08-17T05:26:21.963Z,31.40
2022-08-17T05:29:02.837Z,33.67
2022-08-17T05:31:30.711Z,34.30
2022-08-17T05:33:58.377Z,33.75
2022-08-17T05:36:42.015Z,34.70
2022-08-17T05:39:16.299Z,33.42
2022-08-17T05:41:45.838Z,33.45
2022-08-17T05:44:12.661Z,32.55
2022-08-17T05:46:43.555Z,32.78
2022-08-17T05:49:11.945Z,35.40
2022-08-17T05:51:57.500Z,34.75
2022-08-17T05:54:50.061Z,32.58
2022-08-17T05:57:26.910Z,34.30
2022-08-17T06:00:12.170Z,33.88
2022-08-17T06:03:25.818Z,33.75
2022-08-17T06:06:25.250Z,35.75
2022-08-17T06:09:21.184Z,35.60
2022-08-17T06:11:58.737Z,36.63
2022-08-17T06:14:31.713Z,37.47
2022-08-17T06:17:04.294Z,36.72
2022-08-17T06:19:34.042Z,36.85
2022-08-17T06:22:02.812Z,37.60
2022-08-17T06:24:57.858Z,37.22
2022-08-17T06:27:35.867Z,37.47
2022-08-17T06:30:11.701Z,35.72
2022-08-17T06:32:42.751Z,37.72
2022-08-17T06:35:14.123Z,35.88
2022-08-17T06:38:38.093Z,39.22
2022-08-17T06:41:17.507Z,42.00
2022-08-17T06:44:42.143Z,39.90
2022-08-17T06:47:28.671Z,40.67
2022-08-17T06:50:10.059Z,39.35
2022-08-17T06:53:19.748Z,40.90
2022-08-17T06:55:46.788Z,38.30
2022-08-17T06:58:18.351Z,39.03
2022-08-17T07:00:47.850Z,38.95
2022-08-17T07:03:44.260Z,36.92
2022-08-17T07:06:19.664Z,37.72
2022-08-17T07:08:57.838Z,41.00
2022-08-17T07:12:17.307Z,43.50
2022-08-17T07:14:56.304Z,41.38
2022-08-17T07:17:46.600Z,43.92
2022-08-17T07:20:15.258Z,45.45
2022-08-17T07:23:00.301Z,46.05
2022-08-17T07:25:31.620Z,47.63
2022-08-17T07:28:02.397Z,49.10
2022-08-17T07:30:46.938Z,45.58
2022-08-17T07:33:19.959Z,44.50
2022-08-17T07:35:48.416Z,45.30
2022-08-17T07:38:48.377Z,46.53
2022-08-17T07:41:15.158Z,46.08
2022-08-17T07:43:41.912Z,49.42
2022-08-17T07:46:30.378Z,50.92
2022-08-17T07:49:19.029Z,52.35
2022-08-17T07:51:57.097Z,51.80
2022-08-17T07:54:35.751Z,54.10
2022-08-17T07:57:08.500Z,57.03
2022-08-17T07:59:38.532Z,56.42
2022-08-17T08:02:31.969Z,54.85
2022-08-17T08:05:13.328Z,55.58
2022-08-17T08:07:52.250Z,48.63
2022-08-17T08:10:27.934Z,52.25
2022-08-17T08:13:15.007Z,48.45
2022-08-17T08:15:49.382Z,43.25
2022-08-17T08:18:53.867Z,45.33
2022-08-17T08:21:35.589Z,47.90
2022-08-17T08:24:36.678Z,46.58
2022-08-17T08:27:46.634Z,48.35
2022-08-17T08:30:21.292Z,49.05
2022-08-17T08:32:51.069Z,52.00
2022-08-17T08:35:29.644Z,49.25
2022-08-17T08:38:26.803Z,50.15
2022-08-17T08:41:00.462Z,46.60
2022-08-17T08:43:37.267Z,48.42
2022-08-17T08:46:36.799Z,49.28
2022-08-17T08:50:02.708Z,50.65
2022-08-17T08:53:00.125Z,49.88
2022-08-17T08:55:51.902Z,50.10
2022-08-17T08:58:31.632Z,46.67
2022-08-17T09:01:26.367Z,49.83
2022-08-17T09:04:25.500Z,50.90
2022-08-17T09:07:11.932Z,43.35
2022-08-17T09:10:25.505Z,40.90
2022-08-17T09:13:09.310Z,40.55
2022-08-17T09:15:47.212Z,41.60
2022-08-17T09:19:02.199Z,37.83
2022-08-17T09:21:27.306Z,37.28
2022-08-17T09:24:06.980Z,35.38
2022-08-17T09:26:59.716Z,33.03
2022-08-17T09:29:32.399Z,29.52
2022-08-17T09:32:09.582Z,30.83
2022-08-17T09:34:47.003Z,28.08
2022-08-17T09:37:47.751Z,24.60
2022-08-17T09:40:24.441Z,24.55
2022-08-17T09:43:27.669Z,22.02
2022-08-17T09:46:03.901Z,23.52
2022-08-17T09:48:50.678Z,25.23
2022-08-17T09:51:40.141Z,25.02
2022-08-17T09:54:38.089Z,24.08
2022-08-17T09:57:29.017Z,22.42
2022-08-17T10:00:29.277Z,19.48
2022-08-17T10:03:17.973Z,19.52
2022-08-17T10:06:27.170Z,12.02
2022-08-17T10:09:07.298Z,16.10
2022-08-17T10:12:17.410Z,17.42
2022-08-17T10:14:53.633Z,18.10
2022-08-17T10:17:29.294Z,15.90
2022-08-17T10:20:10.784Z,15.10
2022-08-17T10:23:08.041Z,15.60
2022-08-17T10:26:00.401Z,16.88
2022-08-17T10:28:32.006Z,19.00
2022-08-17T10:31:33.029Z,19.02
2022-08-17T10:34:14.264Z,21.25
2022-08-17T10:36:54.924Z,20.63
2022-08-17T10:39:50.397Z,17.42
2022-08-17T10:42:43.844Z,17.05
2022-08-17T10:45:35.368Z,14.98
2022-08-17T10:48:22.158Z,16.20
2022-08-17T10:51:07.679Z,18.80
2022-08-17T10:53:38.796Z,18.90
2022-08-17T10:56:13.496Z,17.20
2022-08-17T10:58:57.951Z,17.40
2022-08-17T11:01:42.096Z,14.35
2022-08-17T11:04:24.207Z,14.10
2022-08-17T11:07:07.142Z,12.25
2022-08-17T11:10:01.762Z,12.07
2022-08-17T11:12:37.624Z,14.55
2022-08-17T11:15:35.883Z,13.95
2022-08-17T11:18:08.645Z,15.25
2022-08-17T11:21:02.766Z,16.92
2022-08-17T11:23:50.282Z,14.38
2022-08-17T11:26:26.592Z,17.38
2022-08-17T11:29:24.586Z,13.88
2022-08-17T11:32:26.820Z,18.48
2022-08-17T11:35:15.058Z,12.50
2022-08-17T11:38:16.229Z,15.80
2022-08-17T11:40:59.476Z,14.88
2022-08-17T11:43:47.428Z,16.83
2022-08-17T11:46:18.515Z,16.40
2022-08-17T11:49:34.918Z,15.27
2022-08-17T11:52:01.729Z,16.60
2022-08-17T11:54:33.831Z,13.85
2022-08-17T11:57:26.802Z,12.93
2022-08-17T11:59:58.752Z,12.45
2022-08-17T12:02:32.639Z,12.63
2022-08-17T12:05:14.492Z,11.32
2022-08-17T12:07:52.697Z,10.35
2022-08-17T12:10:32.028Z,10.13
2022-08-17T12:13:03.458Z,9.65
2022-08-17T12:15:37.588Z,9.98
2022-08-17T12:18:04.377Z,10.50
2022-08-17T12:20:40.461Z,10.50
2022-08-17T12:23:10.384Z,11.50
2022-08-17T12:26:07.244Z,11.15
2022-08-17T12:28:38.667Z,10.98
2022-08-17T12:31:21.851Z,11.38
2022-08-17T12:33:51.727Z,12.07
2022-08-17T12:36:24.816Z,15.32
2022-08-17T12:38:59.475Z,14.50
2022-08-17T12:41:43.657Z,15.65
2022-08-17T12:44:25.825Z,11.65
2022-08-17T12:47:10.744Z,14.18
2022-08-17T12:49:42.190Z,12.98
2022-08-17T12:52:26.665Z,14.00
2022-08-17T12:54:59.378Z,13.25
2022-08-17T12:57:38.048Z,14.30
2022-08-17T13:00:17.715Z,13.32
2022-08-17T13:02:48.657Z,14.00
2022-08-17T13:05:36.346Z,13.07
2022-08-17T13:08:14.704Z,10.98
2022-08-17T13:10:41.626Z,13.13
2022-08-17T13:13:21.332Z,12.40
2022-08-17T13:15:54.969Z,13.15
2022-08-17T13:18:39.920Z,11.63
2022-08-17T13:21:18.891Z,10.95
2022-08-17T13:23:59.901Z,14.27
2022-08-17T13:26:34.491Z,12.68
2022-08-17T13:29:05.387Z,13.75
2022-08-17T13:31:39.451Z,14.10
2022-08-17T13:34:26.849Z,12.50
2022-08-17T13:37:36.900Z,13.82
2022-08-17T13:40:29.146Z,14.50
2022-08-17T13:42:56.895Z,13.93
2022-08-17T13:45:35.176Z,13.10
2022-08-17T13:48:15.905Z,15.82
2022-08-17T13:50:46.406Z,14.10
2022-08-17T13:53:17.850Z,16.38
2022-08-17T13:55:51.881Z,16.00
2022-08-17T13:58:22.449Z,13.43
2022-08-17T14:00:50.624Z,16.33
2022-08-17T14:03:18.833Z,16.45
2022-08-17T14:05:46.249Z,17.35
2022-08-17T14:08:15.443Z,16.92
2022-08-17T14:10:43.593Z,16.88
2022-08-17T14:13:10.403Z,16.10
2022-08-17T14:15:55.469Z,15.30
2022-08-17T14:18:35.495Z,14.25
2022-08-17T14:21:11.420Z,14.25
2022-08-17T14:23:38.494Z,12.90
2022-08-17T14:26:05.630Z,12.95
2022-08-17T14:28:32.486Z,11.77
2022-08-17T14:31:00.819Z,12.52
2022-08-17T14:33:30.739Z,11.02
2022-08-17T14:35:58.121Z,11.52
2022-08-17T14:38:25.236Z,12.32
2022-08-17T14:40:52.565Z,11.93
2022-08-17T14:43:20.470Z,12.90
2022-08-17T14:45:47.324Z,14.02
2022-08-17T14:48:14.194Z,13.52
2022-08-17T14:50:42.623Z,13.95
2022-08-17T14:53:11.419Z,14.02
2022-08-17T14:55:40.501Z,12.93
2022-08-17T14:58:08.775Z,14.05
2022-08-17T15:00:35.585Z,13.25
2022-08-17T15:03:03.054Z,14.40
2022-08-17T15:05:33.754Z,14.13
2022-08-17T15:08:02.342Z,11.73
2022-08-17T15:10:30.365Z,13.07
2022-08-17T15:12:57.875Z,12.30
2022-08-17T15:15:25.218Z,14.40
2022-08-17T15:17:52.011Z,14.00
2022-08-17T15:20:21.949Z,14.52
2022-08-17T15:22:55.668Z,16.02
2022-08-17T15:25:24.624Z,14.38
2022-08-17T15:27:52.057Z,14.80
2022-08-17T15:30:19.855Z,16.15
2022-08-17T15:32:54.780Z,15.32
2022-08-17T15:35:27.453Z,15.65
2022-08-17T15:38:04.576Z,14.45
2022-08-17T15:40:37.235Z,14.32
2022-08-17T15:43:08.487Z,14.65
2022-08-17T15:45:35.374Z,15.02
2022-08-17T15:48:02.425Z,13.98
2022-08-17T15:50:29.281Z,14.68
2022-08-17T15:52:58.655Z,14.05
2022-08-17T15:55:28.277Z,14.90
2022-08-17T15:57:55.757Z,15.68
2022-08-17T16:00:24.024Z,15.82
2022-08-17T16:03:46.978Z,14.00
2022-08-17T16:05:37.769Z,13.07
2022-08-17T16:08:07.985Z,12.98
2022-08-17T16:10:35.973Z,10.50
2022-08-17T16:13:04.446Z,13.55
2022-08-17T16:15:32.058Z,11.40
2022-08-17T16:17:59.449Z,12.80
2022-08-17T16:20:26.292Z,12.65
2022-08-17T16:22:54.151Z,12.07
2022-08-17T16:25:47.103Z,11.80
2022-08-17T16:28:13.662Z,10.50
2022-08-17T16:30:41.236Z,9.45
2022-08-17T16:33:11.397Z,9.57
2022-08-17T16:35:38.810Z,9.32
2022-08-17T16:38:07.302Z,9.90
2022-08-17T16:40:35.982Z,10.88
2022-08-17T16:43:04.163Z,11.50
2022-08-17T16:45:40.110Z,12.27
2022-08-17T16:48:08.157Z,12.82
2022-08-17T16:50:36.221Z,6.82
2022-08-17T16:53:11.670Z,4.90
2022-08-17T16:55:38.605Z,2.63
2022-08-17T16:58:06.889Z,2.20
2022-08-17T17:00:34.557Z,1.85
2022-08-17T17:03:18.976Z,1.60
2022-08-17T17:05:55.259Z,2.00
2022-08-17T17:08:46.769Z,1.90
2022-08-17T17:11:40.277Z,1.90
2022-08-17T17:14:29.939Z,2.17
2022-08-17T17:17:25.472Z,2.30
2022-08-17T17:20:02.854Z,2.17
2022-08-17T17:22:48.255Z,2.38
2022-08-17T17:25:40.560Z,1.65
2022-08-17T17:28:34.545Z,1.60
2022-08-17T17:31:20.570Z,1.55
2022-08-17T17:33:52.536Z,2.42
2022-08-17T17:36:51.485Z,2.22
2022-08-17T17:39:23.689Z,2.67
2022-08-17T17:41:59.466Z,1.48
2022-08-17T17:44:33.068Z,2.33
2022-08-17T17:47:02.762Z,2.20
2022-08-17T17:49:55.981Z,2.20
2022-08-17T17:52:40.982Z,2.60
2022-08-17T17:55:19.624Z,2.60
2022-08-17T17:58:33.256Z,2.22
2022-08-17T18:01:22.380Z,5.25
2022-08-17T18:04:17.001Z,6.80
2022-08-17T18:07:29.071Z,7.55
2022-08-17T18:10:30.115Z,7.82
2022-08-17T18:13:16.592Z,8.68
2022-08-17T18:15:51.181Z,8.48
2022-08-17T18:18:18.031Z,9.40
2022-08-17T18:20:55.855Z,8.98
2022-08-17T18:23:28.185Z,9.40
2022-08-17T18:25:56.303Z,9.75
2022-08-17T18:28:34.057Z,9.38
2022-08-17T18:31:03.584Z,9.30
2022-08-17T18:33:30.341Z,8.65
2022-08-17T18:35:59.593Z,8.80
2022-08-17T18:38:36.403Z,9.15
2022-08-17T18:41:06.106Z,9.52
2022-08-17T18:43:44.479Z,9.97
2022-08-17T18:46:35.145Z,9.13
2022-08-17T18:49:26.159Z,8.32
2022-08-17T18:52:11.636Z,8.85
2022-08-17T18:54:38.845Z,8.52
2022-08-17T18:57:07.600Z,9.40
2022-08-17T18:59:48.162Z,8.43
2022-08-17T19:05:10.834Z,7.57
2022-08-17T19:07:41.116Z,7.57
2022-08-17T19:10:19.970Z,7.22
2022-08-17T19:13:12.714Z,7.28
2022-08-17T19:16:14.443Z,6.10
2022-08-17T19:18:52.942Z,5.22
2022-08-17T19:21:33.530Z,6.47
2022-08-17T19:24:19.487Z,6.38
2022-08-17T19:27:12.286Z,7.00
2022-08-17T19:29:57.068Z,6.18
2022-08-17T19:32:30.844Z,6.40
2022-08-17T19:34:57.974Z,5.95
2022-08-17T19:37:43.047Z,6.38
2022-08-17T19:40:51.585Z,5.60
2022-08-17T19:43:51.269Z,6.35
2022-08-17T19:46:27.081Z,5.90
2022-08-17T19:49:16.082Z,6.57
2022-08-17T19:51:45.942Z,6.00
2022-08-17T19:54:22.573Z,5.43
2022-08-17T19:57:09.246Z,6.10
2022-08-17T19:59:59.141Z,6.20
2022-08-17T20:03:00.067Z,5.88
2022-08-17T20:05:48.762Z,6.07
2022-08-17T20:08:26.030Z,5.32
2022-08-17T20:10:59.500Z,6.22
2022-08-17T20:13:46.366Z,6.20
2022-08-17T20:16:13.344Z,6.45
2022-08-17T20:18:58.665Z,5.22
2022-08-17T20:21:34.274Z,5.15
2022-08-17T20:24:18.334Z,5.45
2022-08-17T20:26:58.169Z,5.50
2022-08-17T20:30:12.230Z,5.93
2022-08-17T20:32:55.700Z,6.05
2022-08-17T20:35:34.599Z,5.75
2022-08-17T20:38:05.588Z,5.25
2022-08-17T20:40:35.189Z,4.57
2022-08-17T20:43:34.886Z,4.90
2022-08-17T20:46:29.101Z,4.25
2022-08-17T20:49:14.641Z,3.80
2022-08-17T20:52:01.419Z,3.72
2022-08-17T20:54:47.220Z,4.10
2022-08-17T20:57:32.414Z,3.65
2022-08-17T21:00:27.574Z,4.03
2022-08-17T21:03:51.185Z,3.70
2022-08-17T21:06:22.170Z,3.65
2022-08-17T21:08:53.878Z,3.97
2022-08-17T21:12:03.351Z,3.72
2022-08-17T21:14:58.031Z,4.10
2022-08-17T21:17:39.443Z,4.22
2022-08-17T21:20:44.526Z,3.97
2022-08-17T21:23:35.737Z,4.07
2022-08-17T21:26:11.797Z,4.22
2022-08-17T21:29:31.191Z,3.90
2022-08-17T21:31:59.603Z,3.97
2022-08-17T21:34:36.515Z,4.60
2022-08-17T21:37:24.047Z,3.90
2022-08-17T21:39:54.231Z,3.40
2022-08-17T21:42:34.475Z,3.47
2022-08-17T21:45:29.324Z,3.13
2022-08-17T21:48:16.664Z,3.42
2022-08-17T21:50:47.569Z,3.85
2022-08-17T21:53:40.066Z,3.17
2022-08-17T21:56:07.751Z,3.72
2022-08-17T21:58:39.975Z,3.97
2022-08-17T22:01:09.832Z,3.78
2022-08-17T22:03:38.561Z,3.80
2022-08-17T22:06:27.058Z,3.88
2022-08-17T22:09:18.292Z,3.67
2022-08-17T22:12:07.202Z,4.13
2022-08-17T22:14:53.272Z,4.07
2022-08-17T22:17:29.018Z,4.65
2022-08-17T22:20:14.456Z,4.40
2022-08-17T22:23:09.021Z,5.50
2022-08-17T22:25:40.692Z,5.28
2022-08-17T22:28:10.438Z,6.43
2022-08-17T22:30:43.780Z,6.45
2022-08-17T22:33:37.501Z,6.57
2022-08-17T22:36:11.984Z,7.20
2022-08-17T22:38:41.386Z,7.50
2022-08-17T22:41:22.806Z,7.88
2022-08-17T22:43:50.673Z,7.00
2022-08-17T22:46:23.878Z,7.45
2022-08-17T22:48:59.534Z,7.78
2022-08-17T22:51:30.940Z,6.33
2022-08-17T22:54:20.067Z,7.03
2022-08-17T22:57:18.761Z,6.80
2022-08-17T22:59:55.050Z,6.30
2022-08-17T23:02:28.863Z,6.20
2022-08-17T23:05:12.796Z,6.55
2022-08-17T23:07:42.440Z,6.43
2022-08-17T23:10:11.362Z,6.78
2022-08-17T23:12:39.844Z,7.00
2022-08-17T23:15:14.384Z,6.13
2022-08-17T23:17:42.015Z,6.30
2022-08-17T23:20:14.150Z,6.03
2022-08-17T23:22:52.102Z,6.82
2022-08-17T23:25:31.301Z,6.93
2022-08-17T23:28:01.506Z,7.50
2022-08-17T23:30:31.467Z,7.03
2022-08-17T23:33:01.359Z,7.47
2022-08-17T23:35:39.806Z,7.18
2022-08-17T23:38:12.899Z,7.38
2022-08-17T23:40:40.916Z,7.03
2022-08-17T23:43:24.723Z,7.75
2022-08-17T23:45:58.525Z,7.47
2022-08-17T23:48:36.109Z,7.43
2022-08-17T23:51:27.571Z,7.40
2022-08-17T23:54:11.639Z,6.90
2022-08-17T23:56:57.286Z,6.50
2022-08-17T23:59:24.078Z,7.25
